Goldboro, Canada
Current Conditions -  °F | °C
As of 5:00 AM on Monday 20 Oct 2014 (Local Time) from CYPD Reporting Station
Light Rain Light Rain  
Wind Chill:   Ceiling: 600
Heat Index:   Visibility: 1.5mi
Dew Point:   Wind: 24mph
Humidity: 93%   Direction: 300°WNW
Pressure: 29.4"   Gusts: 36mph
Location:  45.18°N, 61.65°W
Report Text: CYPD 200800Z AUTO 30021G31KT 1 1/2SM -RA BR OVC006 09/08 A2940 RMK PRESRR PCPN 2.5MM PAST HR SLP956
Loading
Personal Weather Stations






























Interactive Weather Map
Tropical Storm Tracking
New forecast layout! Learn more

10-Day Weather Forecast

Advertisements
Track Severe Weather on mobile